sensor_id;sensor_type;location;lat;lon;timestamp;pressure;altitude;pressure_sealevel;temperature;humidity
13241;BME280;6687;47.790;7.322;2023-09-07T05:25:07;99170.44;;;17.59;88.09
13241;BME280;6687;47.790;7.322;2023-09-07T05:27:34;99175.44;;;17.68;87.54
13241;BME280;6687;47.790;7.322;2023-09-07T05:30:01;99182.38;;;17.73;87.22
13241;BME280;6687;47.790;7.322;2023-09-07T05:32:28;99183.13;;;17.76;86.71
13241;BME280;6687;47.790;7.322;2023-09-07T05:34:55;99183.94;;;17.80;86.89
13241;BME280;6687;47.790;7.322;2023-09-07T05:37:21;99185.59;;;17.84;86.36
13241;BME280;6687;47.790;7.322;2023-09-07T05:39:48;99181.09;;;17.91;86.01
13241;BME280;6687;47.790;7.322;2023-09-07T05:42:16;99187.03;;;17.97;86.24
13241;BME280;6687;47.790;7.322;2023-09-07T05:44:43;99192.19;;;18.00;86.01
13241;BME280;6687;47.790;7.322;2023-09-07T05:47:09;99184.94;;;18.12;85.84
13241;BME280;6687;47.790;7.322;2023-09-07T05:49:36;99188.41;;;18.12;85.50
13241;BME280;6687;47.790;7.322;2023-09-07T05:52:03;99192.91;;;18.08;85.59
13241;BME280;6687;47.790;7.322;2023-09-07T05:54:30;99196.06;;;18.21;84.77
13241;BME280;6687;47.790;7.322;2023-09-07T05:56:57;99196.75;;;18.28;84.46
13241;BME280;6687;47.790;7.322;2023-09-07T05:59:25;99198.28;;;18.37;84.08
13241;BME280;6687;47.790;7.322;2023-09-07T06:01:52;99198.69;;;18.21;85.81
13241;BME280;6687;47.790;7.322;2023-09-07T06:04:18;99203.50;;;18.38;85.26
13241;BME280;6687;47.790;7.322;2023-09-07T06:06:45;99208.50;;;18.47;85.13
13241;BME280;6687;47.790;7.322;2023-09-07T06:09:12;99208.41;;;18.51;85.31
13241;BME280;6687;47.790;7.322;2023-09-07T06:11:38;99215.38;;;18.52;85.90
13241;BME280;6687;47.790;7.322;2023-09-07T06:14:05;99210.53;;;18.69;85.45
13241;BME280;6687;47.790;7.322;2023-09-07T06:16:33;99212.03;;;18.78;83.07
13241;BME280;6687;47.790;7.322;2023-09-07T06:19:00;99209.25;;;18.85;82.43
13241;BME280;6687;47.790;7.322;2023-09-07T06:21:27;99208.31;;;18.88;81.27
13241;BME280;6687;47.790;7.322;2023-09-07T06:23:53;99208.53;;;18.80;83.52
13241;BME280;6687;47.790;7.322;2023-09-07T06:26:20;99213.16;;;19.02;81.93
13241;BME280;6687;47.790;7.322;2023-09-07T06:28:47;99211.66;;;18.93;83.45
13241;BME280;6687;47.790;7.322;2023-09-07T06:31:14;99212.34;;;19.00;84.03
13241;BME280;6687;47.790;7.322;2023-09-07T06:33:42;99215.69;;;19.05;84.55
13241;BME280;6687;47.790;7.322;2023-09-07T06:36:08;99221.13;;;18.99;85.17
13241;BME280;6687;47.790;7.322;2023-09-07T06:38:35;99211.75;;;19.20;84.16
13241;BME280;6687;47.790;7.322;2023-09-07T06:41:02;99216.13;;;19.21;83.89
13241;BME280;6687;47.790;7.322;2023-09-07T06:43:30;99224.41;;;19.07;83.75
13241;BME280;6687;47.790;7.322;2023-09-07T06:46:02;99220.16;;;19.33;83.35
13241;BME280;6687;47.790;7.322;2023-09-07T06:48:29;99220.16;;;19.33;83.38
13241;BME280;6687;47.790;7.322;2023-09-07T06:51:02;99219.56;;;19.23;83.95
13241;BME280;6687;47.790;7.322;2023-09-07T06:53:30;99215.09;;;19.55;82.37
13241;BME280;6687;47.790;7.322;2023-09-07T06:56:00;99223.25;;;19.75;79.45
13241;BME280;6687;47.790;7.322;2023-09-07T06:58:28;99220.31;;;19.86;79.04
13241;BME280;6687;47.790;7.322;2023-09-07T07:00:57;99213.13;;;19.91;75.81
13241;BME280;6687;47.790;7.322;2023-09-07T07:03:26;99219.91;;;19.98;78.10
13241;BME280;6687;47.790;7.322;2023-09-07T07:05:53;99224.88;;;20.08;77.50
13241;BME280;6687;47.790;7.322;2023-09-07T07:08:21;99221.13;;;20.15;74.89
13241;BME280;6687;47.790;7.322;2023-09-07T07:10:48;99214.66;;;19.98;77.86
13241;BME280;6687;47.790;7.322;2023-09-07T07:13:15;99213.03;;;20.21;78.04
13241;BME280;6687;47.790;7.322;2023-09-07T07:15:42;99221.63;;;20.26;78.22
13241;BME280;6687;47.790;7.322;2023-09-07T07:18:08;99218.69;;;20.35;77.89
13241;BME280;6687;47.790;7.322;2023-09-07T07:20:35;99223.47;;;20.49;77.36
13241;BME280;6687;47.790;7.322;2023-09-07T07:23:02;99219.16;;;20.46;76.98
13241;BME280;6687;47.790;7.322;2023-09-07T07:25:30;99221.59;;;20.53;75.95
13241;BME280;6687;47.790;7.322;2023-09-07T07:27:58;99223.47;;;20.76;74.66
13241;BME280;6687;47.790;7.322;2023-09-07T07:30:27;99221.72;;;21.00;71.85
13241;BME280;6687;47.790;7.322;2023-09-07T07:32:55;99218.66;;;21.11;69.81
13241;BME280;6687;47.790;7.322;2023-09-07T07:35:21;99222.63;;;21.22;68.24
13241;BME280;6687;47.790;7.322;2023-09-07T07:37:49;99218.50;;;21.39;67.58
13241;BME280;6687;47.790;7.322;2023-09-07T07:40:16;99221.66;;;21.49;67.26
13241;BME280;6687;47.790;7.322;2023-09-07T07:42:45;99218.47;;;21.62;66.22
13241;BME280;6687;47.790;7.322;2023-09-07T07:45:13;99215.63;;;21.69;66.16
13241;BME280;6687;47.790;7.322;2023-09-07T07:47:40;99216.97;;;21.79;65.50
13241;BME280;6687;47.790;7.322;2023-09-07T07:50:08;99214.88;;;21.87;65.38
13241;BME280;6687;47.790;7.322;2023-09-07T07:52:35;99218.94;;;21.96;65.30
13241;BME280;6687;47.790;7.322;2023-09-07T07:55:01;99207.38;;;21.98;65.96
13241;BME280;6687;47.790;7.322;2023-09-07T07:57:28;99220.75;;;22.16;64.14
13241;BME280;6687;47.790;7.322;2023-09-07T07:59:57;99224.97;;;22.20;64.84
13241;BME280;6687;47.790;7.322;2023-09-07T08:02:23;99216.91;;;22.24;65.51
13241;BME280;6687;47.790;7.322;2023-09-07T08:04:50;99226.94;;;22.37;64.57
13241;BME280;6687;47.790;7.322;2023-09-07T08:07:17;99226.38;;;22.51;63.26
13241;BME280;6687;47.790;7.322;2023-09-07T08:09:44;99224.69;;;22.48;63.92
13241;BME280;6687;47.790;7.322;2023-09-07T08:12:11;99226.41;;;22.70;62.04
13241;BME280;6687;47.790;7.322;2023-09-07T08:14:38;99227.03;;;22.76;62.30
13241;BME280;6687;47.790;7.322;2023-09-07T08:17:06;99217.44;;;22.74;63.16
13241;BME280;6687;47.790;7.322;2023-09-07T08:19:33;99218.50;;;22.90;61.63
13241;BME280;6687;47.790;7.322;2023-09-07T08:22:00;99217.13;;;23.02;62.42
13241;BME280;6687;47.790;7.322;2023-09-07T08:24:28;99220.38;;;23.07;62.54
13241;BME280;6687;47.790;7.322;2023-09-07T08:26:55;99212.78;;;23.20;60.94
13241;BME280;6687;47.790;7.322;2023-09-07T08:29:23;99223.41;;;23.37;60.89
13241;BME280;6687;47.790;7.322;2023-09-07T08:31:51;99217.44;;;23.34;61.55
13241;BME280;6687;47.790;7.322;2023-09-07T08:34:20;99210.13;;;23.39;61.49
13241;BME280;6687;47.790;7.322;2023-09-07T08:36:47;99206.28;;;23.46;61.19
13241;BME280;6687;47.790;7.322;2023-09-07T08:39:15;99208.97;;;23.63;60.87
13241;BME280;6687;47.790;7.322;2023-09-07T08:41:43;99209.53;;;23.51;60.33
13241;BME280;6687;47.790;7.322;2023-09-07T08:44:11;99208.97;;;23.63;60.55
13241;BME280;6687;47.790;7.322;2023-09-07T08:46:40;99203.53;;;23.67;60.23
13241;BME280;6687;47.790;7.322;2023-09-07T08:49:07;99209.97;;;23.80;60.92
13241;BME280;6687;47.790;7.322;2023-09-07T08:51:36;99208.69;;;23.70;59.29
13241;BME280;6687;47.790;7.322;2023-09-07T08:54:03;99201.38;;;23.75;59.18
13241;BME280;6687;47.790;7.322;2023-09-07T08:56:30;99202.88;;;23.99;59.05
13241;BME280;6687;47.790;7.322;2023-09-07T08:58:57;99199.91;;;24.06;58.58
13241;BME280;6687;47.790;7.322;2023-09-07T09:01:24;99201.63;;;24.24;59.74
13241;BME280;6687;47.790;7.322;2023-09-07T09:03:51;99201.06;;;24.35;59.90
13241;BME280;6687;47.790;7.322;2023-09-07T09:06:19;99198.22;;;24.39;59.05
13241;BME280;6687;47.790;7.322;2023-09-07T09:08:49;99196.66;;;24.53;59.36
13241;BME280;6687;47.790;7.322;2023-09-07T09:11:16;99191.50;;;24.67;59.55
13241;BME280;6687;47.790;7.322;2023-09-07T09:13:43;99195.38;;;24.77;58.22
13241;BME280;6687;47.790;7.322;2023-09-07T09:16:11;99187.88;;;24.86;58.34
13241;BME280;6687;47.790;7.322;2023-09-07T09:18:38;99182.88;;;24.97;57.99
13241;BME280;6687;47.790;7.322;2023-09-07T09:21:05;99185.00;;;25.06;57.49
13241;BME280;6687;47.790;7.322;2023-09-07T09:23:33;99183.56;;;25.16;56.48
13241;BME280;6687;47.790;7.322;2023-09-07T09:26:01;99183.25;;;25.23;55.86
13241;BME280;6687;47.790;7.322;2023-09-07T09:28:30;99184.47;;;25.33;54.81
13241;BME280;6687;47.790;7.322;2023-09-07T09:30:58;99184.16;;;25.39;55.88
13241;BME280;6687;47.790;7.322;2023-09-07T09:33:25;99176.06;;;25.56;56.15
13241;BME280;6687;47.790;7.322;2023-09-07T09:35:53;99176.41;;;25.66;55.72
13241;BME280;6687;47.790;7.322;2023-09-07T09:38:22;99180.00;;;25.81;55.95
13241;BME280;6687;47.790;7.322;2023-09-07T09:40:49;99174.16;;;25.90;54.46
13241;BME280;6687;47.790;7.322;2023-09-07T09:43:19;99180.50;;;26.04;54.72
13241;BME280;6687;47.790;7.322;2023-09-07T09:45:46;99175.41;;;26.15;55.43
13241;BME280;6687;47.790;7.322;2023-09-07T09:48:16;99182.50;;;26.30;54.43
13241;BME280;6687;47.790;7.322;2023-09-07T09:50:46;99177.00;;;26.48;54.12
13241;BME280;6687;47.790;7.322;2023-09-07T09:53:14;99181.41;;;26.63;51.39
13241;BME280;6687;47.790;7.322;2023-09-07T09:55:44;99176.31;;;26.74;51.21
13241;BME280;6687;47.790;7.322;2023-09-07T09:58:11;99165.75;;;26.87;49.83
13241;BME280;6687;47.790;7.322;2023-09-07T10:00:40;99173.09;;;26.98;51.69
13241;BME280;6687;47.790;7.322;2023-09-07T10:03:10;99167.16;;;27.07;51.62
13241;BME280;6687;47.790;7.322;2023-09-07T10:05:37;99167.75;;;27.27;51.10
13241;BME280;6687;47.790;7.322;2023-09-07T10:08:08;99158.69;;;27.44;47.65
13241;BME280;6687;47.790;7.322;2023-09-07T10:10:36;99156.66;;;27.62;47.25
13241;BME280;6687;47.790;7.322;2023-09-07T10:13:04;99152.22;;;27.75;47.69
13241;BME280;6687;47.790;7.322;2023-09-07T10:15:32;99156.34;;;27.66;50.12
13241;BME280;6687;47.790;7.322;2023-09-07T10:18:10;99153.13;;;27.88;49.93
13241;BME280;6687;47.790;7.322;2023-09-07T10:20:49;99152.13;;;28.04;48.88
13241;BME280;6687;47.790;7.322;2023-09-07T10:23:16;99147.56;;;28.19;46.69
13241;BME280;6687;47.790;7.322;2023-09-07T10:25:48;99139.47;;;28.33;45.48
13241;BME280;6687;47.790;7.322;2023-09-07T10:28:20;99142.34;;;28.43;45.44
13241;BME280;6687;47.790;7.322;2023-09-07T10:30:57;99133.66;;;28.53;47.47
13241;BME280;6687;47.790;7.322;2023-09-07T10:33:26;99138.78;;;28.69;47.54
13241;BME280;6687;47.790;7.322;2023-09-07T10:35:53;99131.50;;;28.71;47.76
13241;BME280;6687;47.790;7.322;2023-09-07T10:38:20;99138.94;;;28.92;45.75
13241;BME280;6687;47.790;7.322;2023-09-07T10:40:47;99139.16;;;29.02;44.63
13241;BME280;6687;47.790;7.322;2023-09-07T10:43:14;99136.56;;;29.00;46.71
13241;BME280;6687;47.790;7.322;2023-09-07T10:45:44;99132.09;;;29.13;46.51
13241;BME280;6687;47.790;7.322;2023-09-07T10:48:12;99126.31;;;29.20;43.33
13241;BME280;6687;47.790;7.322;2023-09-07T10:50:45;99120.91;;;29.45;44.75
13241;BME280;6687;47.790;7.322;2023-09-07T10:53:13;99120.63;;;29.61;42.17
13241;BME280;6687;47.790;7.322;2023-09-07T10:55:41;99119.53;;;29.64;45.28
13241;BME280;6687;47.790;7.322;2023-09-07T10:58:09;99116.13;;;29.62;45.12
13241;BME280;6687;47.790;7.322;2023-09-07T11:00:37;99111.72;;;29.73;44.95
13241;BME280;6687;47.790;7.322;2023-09-07T11:03:08;99113.72;;;29.70;44.72
13241;BME280;6687;47.790;7.322;2023-09-07T11:05:37;99111.91;;;29.94;42.92
13241;BME280;6687;47.790;7.322;2023-09-07T11:08:08;99107.09;;;30.11;44.33
13241;BME280;6687;47.790;7.322;2023-09-07T11:10:36;99108.19;;;30.20;40.63
13241;BME280;6687;47.790;7.322;2023-09-07T11:13:05;99115.84;;;30.13;43.95
13241;BME280;6687;47.790;7.322;2023-09-07T11:15:33;99110.56;;;30.36;43.41
13241;BME280;6687;47.790;7.322;2023-09-07T11:18:04;99112.03;;;30.40;43.36
13241;BME280;6687;47.790;7.322;2023-09-07T11:20:32;99109.59;;;30.48;43.01
13241;BME280;6687;47.790;7.322;2023-09-07T11:23:00;99112.53;;;30.79;41.48
13241;BME280;6687;47.790;7.322;2023-09-07T11:25:34;99105.88;;;30.84;41.94
13241;BME280;6687;47.790;7.322;2023-09-07T11:28:02;99105.13;;;30.93;38.92
13241;BME280;6687;47.790;7.322;2023-09-07T11:30:30;99098.88;;;31.16;40.89
13241;BME280;6687;47.790;7.322;2023-09-07T11:33:05;99097.94;;;31.17;38.72
13241;BME280;6687;47.790;7.322;2023-09-07T11:35:33;99102.19;;;31.19;41.90
13241;BME280;6687;47.790;7.322;2023-09-07T11:38:00;99098.50;;;31.31;41.67
13241;BME280;6687;47.790;7.322;2023-09-07T11:40:30;99095.06;;;31.52;39.38
13241;BME280;6687;47.790;7.322;2023-09-07T11:42:57;99099.88;;;31.26;40.80
13241;BME280;6687;47.790;7.322;2023-09-07T11:45:24;99100.53;;;31.39;40.66
13241;BME280;6687;47.790;7.322;2023-09-07T11:47:51;99089.72;;;31.41;40.35
13241;BME280;6687;47.790;7.322;2023-09-07T11:50:17;99086.41;;;31.60;40.55
13241;BME280;6687;47.790;7.322;2023-09-07T11:52:44;99086.03;;;31.85;38.07
13241;BME280;6687;47.790;7.322;2023-09-07T11:55:14;99082.94;;;32.01;36.75
13241;BME280;6687;47.790;7.322;2023-09-07T11:57:42;99079.63;;;32.19;36.54
13241;BME280;6687;47.790;7.322;2023-09-07T12:00:10;99080.97;;;32.03;39.77
13241;BME280;6687;47.790;7.322;2023-09-07T12:02:38;99083.19;;;32.19;39.93
13241;BME280;6687;47.790;7.322;2023-09-07T12:05:06;99081.13;;;32.33;39.50
13241;BME280;6687;47.790;7.322;2023-09-07T12:07:34;99076.88;;;32.30;39.84
13241;BME280;6687;47.790;7.322;2023-09-07T12:10:02;99073.72;;;32.46;36.41
13241;BME280;6687;47.790;7.322;2023-09-07T12:12:28;99076.56;;;32.54;35.67
13241;BME280;6687;47.790;7.322;2023-09-07T12:14:56;99077.50;;;32.64;36.33
13241;BME280;6687;47.790;7.322;2023-09-07T12:17:23;99077.81;;;32.71;35.98
13241;BME280;6687;47.790;7.322;2023-09-07T12:19:50;99076.47;;;32.96;36.51
13241;BME280;6687;47.790;7.322;2023-09-07T12:22:17;99081.00;;;32.96;38.13
13241;BME280;6687;47.790;7.322;2023-09-07T12:24:44;99079.59;;;33.01;35.26
13241;BME280;6687;47.790;7.322;2023-09-07T12:27:11;99064.91;;;33.05;34.73
13241;BME280;6687;47.790;7.322;2023-09-07T12:29:37;99065.19;;;33.02;36.37
13241;BME280;6687;47.790;7.322;2023-09-07T12:32:06;99063.00;;;33.17;36.40
13241;BME280;6687;47.790;7.322;2023-09-07T12:34:32;99059.88;;;33.22;37.43
13241;BME280;6687;47.790;7.322;2023-09-07T12:36:59;99053.34;;;33.05;34.82
13241;BME280;6687;47.790;7.322;2023-09-07T12:39:26;99053.66;;;33.21;38.08
13241;BME280;6687;47.790;7.322;2023-09-07T12:41:53;99048.81;;;33.05;38.28
13241;BME280;6687;47.790;7.322;2023-09-07T12:44:20;99047.72;;;33.18;34.89
13241;BME280;6687;47.790;7.322;2023-09-07T12:46:46;99048.56;;;33.28;36.54
13241;BME280;6687;47.790;7.322;2023-09-07T12:49:15;99042.59;;;33.15;37.54
13241;BME280;6687;47.790;7.322;2023-09-07T12:51:41;99040.25;;;33.31;35.70
13241;BME280;6687;47.790;7.322;2023-09-07T12:54:08;99039.56;;;33.48;34.91
13241;BME280;6687;47.790;7.322;2023-09-07T12:56:35;99042.66;;;33.54;37.06
13241;BME280;6687;47.790;7.322;2023-09-07T12:59:01;99035.72;;;33.61;34.83
13241;BME280;6687;47.790;7.322;2023-09-07T13:01:29;99040.09;;;33.81;35.39
13241;BME280;6687;47.790;7.322;2023-09-07T13:03:56;99038.13;;;33.83;33.41
13241;BME280;6687;47.790;7.322;2023-09-07T13:06:24;99034.00;;;33.99;33.22
13241;BME280;6687;47.790;7.322;2023-09-07T13:08:51;99037.25;;;34.02;35.23
13241;BME280;6687;47.790;7.322;2023-09-07T13:11:18;99028.78;;;33.78;36.03
13241;BME280;6687;47.790;7.322;2023-09-07T13:13:44;99033.44;;;33.95;35.73
13241;BME280;6687;47.790;7.322;2023-09-07T13:16:11;99028.72;;;34.07;35.55
13241;BME280;6687;47.790;7.322;2023-09-07T13:18:38;99034.75;;;33.72;35.62
13241;BME280;6687;47.790;7.322;2023-09-07T13:21:05;99026.81;;;33.80;35.22
13241;BME280;6687;47.790;7.322;2023-09-07T13:23:33;99030.69;;;34.24;32.42
13241;BME280;6687;47.790;7.322;2023-09-07T13:26:00;99035.19;;;34.34;33.90
13241;BME280;6687;47.790;7.322;2023-09-07T13:28:27;99032.75;;;33.83;34.72
13241;BME280;6687;47.790;7.322;2023-09-07T13:30:54;99024.34;;;34.06;35.03
13241;BME280;6687;47.790;7.322;2023-09-07T13:33:20;99023.03;;;34.30;33.96
13241;BME280;6687;47.790;7.322;2023-09-07T13:35:47;99014.06;;;34.39;34.77
13241;BME280;6687;47.790;7.322;2023-09-07T13:38:14;99011.53;;;34.37;32.28
13241;BME280;6687;47.790;7.322;2023-09-07T13:40:42;99019.03;;;34.34;35.31
13241;BME280;6687;47.790;7.322;2023-09-07T13:43:09;99018.75;;;34.37;33.95
13241;BME280;6687;47.790;7.322;2023-09-07T13:45:36;99018.47;;;34.30;33.14
13241;BME280;6687;47.790;7.322;2023-09-07T13:48:02;99011.78;;;34.72;32.43
13241;BME280;6687;47.790;7.322;2023-09-07T13:50:29;99014.41;;;34.54;32.32
13241;BME280;6687;47.790;7.322;2023-09-07T13:52:56;99022.34;;;34.55;31.79
13241;BME280;6687;47.790;7.322;2023-09-07T13:55:23;99010.09;;;34.98;33.17
13241;BME280;6687;47.790;7.322;2023-09-07T13:57:52;99016.47;;;34.97;32.93
13241;BME280;6687;47.790;7.322;2023-09-07T14:00:18;99002.91;;;34.89;34.83
13241;BME280;6687;47.790;7.322;2023-09-07T14:02:45;99004.72;;;34.98;31.67
13241;BME280;6687;47.790;7.322;2023-09-07T14:05:12;99005.16;;;35.12;31.40
13241;BME280;6687;47.790;7.322;2023-09-07T14:07:38;99006.03;;;35.12;31.72
13241;BME280;6687;47.790;7.322;2023-09-07T14:10:06;99003.66;;;35.45;31.54
13241;BME280;6687;47.790;7.322;2023-09-07T14:12:33;98997.81;;;35.68;31.23
13241;BME280;6687;47.790;7.322;2023-09-07T14:15:01;99012.09;;;35.14;31.46
13241;BME280;6687;47.790;7.322;2023-09-07T14:17:28;99004.72;;;35.70;31.94
13241;BME280;6687;47.790;7.322;2023-09-07T14:19:54;99007.66;;;35.41;31.11
13241;BME280;6687;47.790;7.322;2023-09-07T14:22:21;99007.72;;;35.67;31.38
13241;BME280;6687;47.790;7.322;2023-09-07T14:24:48;99002.13;;;35.87;31.89
13241;BME280;6687;47.790;7.322;2023-09-07T14:27:14;99006.03;;;35.66;30.82
13241;BME280;6687;47.790;7.322;2023-09-07T14:29:41;99001.59;;;35.83;32.25
13241;BME280;6687;47.790;7.322;2023-09-07T14:32:10;99004.03;;;35.68;32.19
13241;BME280;6687;47.790;7.322;2023-09-07T14:34:36;99007.88;;;35.83;30.94
13241;BME280;6687;47.790;7.322;2023-09-07T14:37:03;99004.84;;;35.87;32.16
13241;BME280;6687;47.790;7.322;2023-09-07T14:39:30;99004.94;;;36.03;29.64
13241;BME280;6687;47.790;7.322;2023-09-07T14:41:57;99000.69;;;36.18;30.57
13241;BME280;6687;47.790;7.322;2023-09-07T14:44:23;99008.22;;;36.15;31.00
13241;BME280;6687;47.790;7.322;2023-09-07T14:46:50;98997.69;;;35.59;30.61
13241;BME280;6687;47.790;7.322;2023-09-07T14:49:19;99005.22;;;35.92;31.76
13241;BME280;6687;47.790;7.322;2023-09-07T14:51:46;99000.91;;;36.07;31.75
13241;BME280;6687;47.790;7.322;2023-09-07T14:54:13;99000.66;;;35.92;30.65
13241;BME280;6687;47.790;7.322;2023-09-07T14:56:39;98989.00;;;35.65;32.37
13241;BME280;6687;47.790;7.322;2023-09-07T14:59:06;99004.09;;;35.58;31.31
13241;BME280;6687;47.790;7.322;2023-09-07T15:01:33;98998.22;;;36.07;31.09
13241;BME280;6687;47.790;7.322;2023-09-07T15:04:00;98995.75;;;35.88;31.73
13241;BME280;6687;47.790;7.322;2023-09-07T15:06:28;98992.09;;;35.53;32.50
13241;BME280;6687;47.790;7.322;2023-09-07T15:08:56;98999.50;;;35.95;31.06
13241;BME280;6687;47.790;7.322;2023-09-07T15:11:22;98991.78;;;36.00;31.58
13241;BME280;6687;47.790;7.322;2023-09-07T15:13:49;98999.38;;;36.04;30.27
13241;BME280;6687;47.790;7.322;2023-09-07T15:16:18;98993.88;;;36.14;31.55
13241;BME280;6687;47.790;7.322;2023-09-07T15:18:44;98990.94;;;36.26;31.67
13241;BME280;6687;47.790;7.322;2023-09-07T15:21:11;98994.97;;;36.21;31.87
13241;BME280;6687;47.790;7.322;2023-09-07T15:23:39;98992.63;;;35.74;32.48
13241;BME280;6687;47.790;7.322;2023-09-07T15:26:06;98995.28;;;35.92;31.87
13241;BME280;6687;47.790;7.322;2023-09-07T15:28:33;98993.06;;;35.88;31.66
13241;BME280;6687;47.790;7.322;2023-09-07T15:31:00;98998.06;;;35.64;32.04
13241;BME280;6687;47.790;7.322;2023-09-07T15:33:26;98997.22;;;34.64;32.68
13241;BME280;6687;47.790;7.322;2023-09-07T15:35:53;98997.63;;;35.15;31.71
13241;BME280;6687;47.790;7.322;2023-09-07T15:38:20;98995.19;;;35.40;31.96
13241;BME280;6687;47.790;7.322;2023-09-07T15:40:49;99000.66;;;35.30;32.62
13241;BME280;6687;47.790;7.322;2023-09-07T15:43:16;98989.41;;;35.17;32.92
13241;BME280;6687;47.790;7.322;2023-09-07T15:45:43;98991.06;;;34.82;32.19
13241;BME280;6687;47.790;7.322;2023-09-07T15:48:11;98991.06;;;34.82;33.33
13241;BME280;6687;47.790;7.322;2023-09-07T15:50:38;98990.97;;;34.74;32.00
13241;BME280;6687;47.790;7.322;2023-09-07T15:53:07;98999.13;;;34.54;32.29
13241;BME280;6687;47.790;7.322;2023-09-07T15:55:34;98994.03;;;34.51;33.26
13241;BME280;6687;47.790;7.322;2023-09-07T15:58:02;99005.13;;;34.01;32.66
13241;BME280;6687;47.790;7.322;2023-09-07T16:00:29;99002.00;;;33.96;33.11
13241;BME280;6687;47.790;7.322;2023-09-07T16:02:56;99001.78;;;33.21;34.31
13241;BME280;6687;47.790;7.322;2023-09-07T16:05:23;98997.53;;;33.77;33.67
13241;BME280;6687;47.790;7.322;2023-09-07T16:07:51;99001.94;;;33.19;34.57
13241;BME280;6687;47.790;7.322;2023-09-07T16:10:17;98996.53;;;33.68;33.83
13241;BME280;6687;47.790;7.322;2023-09-07T16:12:44;98999.38;;;33.37;33.85
13241;BME280;6687;47.790;7.322;2023-09-07T16:15:12;98997.53;;;32.58;35.18
13241;BME280;6687;47.790;7.322;2023-09-07T16:17:39;98998.06;;;32.83;34.79
13241;BME280;6687;47.790;7.322;2023-09-07T16:20:07;99003.38;;;32.63;35.60
13241;BME280;6687;47.790;7.322;2023-09-07T16:22:34;99003.84;;;32.88;35.25
13241;BME280;6687;47.790;7.322;2023-09-07T16:25:00;98994.50;;;32.92;35.04
13241;BME280;6687;47.790;7.322;2023-09-07T16:27:27;98994.25;;;32.95;35.14
13241;BME280;6687;47.790;7.322;2023-09-07T16:29:54;98994.78;;;32.48;36.00
13241;BME280;6687;47.790;7.322;2023-09-07T16:32:22;98987.28;;;32.42;35.93
13241;BME280;6687;47.790;7.322;2023-09-07T16:34:49;98993.06;;;32.38;36.24
13241;BME280;6687;47.790;7.322;2023-09-07T16:37:15;98989.94;;;32.02;35.79
13241;BME280;6687;47.790;7.322;2023-09-07T16:39:42;98991.28;;;32.48;35.84
13241;BME280;6687;47.790;7.322;2023-09-07T16:42:09;98995.03;;;32.05;35.68
13241;BME280;6687;47.790;7.322;2023-09-07T16:44:38;98996.03;;;32.04;35.77
13241;BME280;6687;47.790;7.322;2023-09-07T16:47:05;98993.84;;;31.98;35.69
13241;BME280;6687;47.790;7.322;2023-09-07T16:49:33;98994.91;;;31.85;36.23
13241;BME280;6687;47.790;7.322;2023-09-07T16:51:59;99000.13;;;32.08;35.82
13241;BME280;6687;47.790;7.322;2023-09-07T16:54:26;99000.72;;;31.90;36.22
13241;BME280;6687;47.790;7.322;2023-09-07T16:56:53;98995.41;;;31.79;36.31
13241;BME280;6687;47.790;7.322;2023-09-07T16:59:20;98995.53;;;31.99;36.55
13241;BME280;6687;47.790;7.322;2023-09-07T17:01:46;98999.63;;;31.72;36.96
13241;BME280;6687;47.790;7.322;2023-09-07T17:04:16;98997.13;;;31.80;37.47
13241;BME280;6687;47.790;7.322;2023-09-07T17:06:44;98994.50;;;32.11;37.19
13241;BME280;6687;47.790;7.322;2023-09-07T17:09:11;99000.78;;;31.79;38.47
13241;BME280;6687;47.790;7.322;2023-09-07T17:11:37;99002.09;;;32.06;37.66
13241;BME280;6687;47.790;7.322;2023-09-07T17:14:04;99001.56;;;32.12;37.64
13241;BME280;6687;47.790;7.322;2023-09-07T17:16:31;99008.50;;;32.15;37.52
13241;BME280;6687;47.790;7.322;2023-09-07T17:18:58;99003.22;;;31.82;38.23
13241;BME280;6687;47.790;7.322;2023-09-07T17:21:25;99012.56;;;31.88;38.34
13241;BME280;6687;47.790;7.322;2023-09-07T17:23:53;99002.69;;;32.09;38.24
13241;BME280;6687;47.790;7.322;2023-09-07T17:26:19;99013.41;;;31.88;38.73
13241;BME280;6687;47.790;7.322;2023-09-07T17:28:46;99010.28;;;31.30;39.50
13241;BME280;6687;47.790;7.322;2023-09-07T17:31:13;99009.63;;;31.70;38.83
13241;BME280;6687;47.790;7.322;2023-09-07T17:33:40;99017.06;;;31.66;38.87
13241;BME280;6687;47.790;7.322;2023-09-07T17:36:13;99017.31;;;31.31;39.51
13241;BME280;6687;47.790;7.322;2023-09-07T17:38:40;99018.34;;;31.51;39.32
13241;BME280;6687;47.790;7.322;2023-09-07T17:41:09;99022.22;;;31.26;39.96
13241;BME280;6687;47.790;7.322;2023-09-07T17:43:36;99019.63;;;30.81;40.44
13241;BME280;6687;47.790;7.322;2023-09-07T17:46:03;99019.41;;;30.61;40.70
13241;BME280;6687;47.790;7.322;2023-09-07T17:48:30;99024.00;;;30.93;40.23
13241;BME280;6687;47.790;7.322;2023-09-07T17:50:57;99023.03;;;30.83;40.57
13241;BME280;6687;47.790;7.322;2023-09-07T17:53:24;99027.44;;;30.39;41.30
13241;BME280;6687;47.790;7.322;2023-09-07T17:55:51;99025.00;;;30.36;41.15
13241;BME280;6687;47.790;7.322;2023-09-07T17:58:19;99029.84;;;30.19;41.82
13241;BME280;6687;47.790;7.322;2023-09-07T18:00:46;99034.19;;;30.09;42.32
13241;BME280;6687;47.790;7.322;2023-09-07T18:03:13;99036.41;;;30.26;41.92
13241;BME280;6687;47.790;7.322;2023-09-07T18:05:39;99039.88;;;29.58;43.59
13241;BME280;6687;47.790;7.322;2023-09-07T18:08:06;99042.31;;;29.37;44.42
13241;BME280;6687;47.790;7.322;2023-09-07T18:10:33;99032.09;;;29.54;44.04
13241;BME280;6687;47.790;7.322;2023-09-07T18:13:00;99037.50;;;29.18;44.68
13241;BME280;6687;47.790;7.322;2023-09-07T18:15:28;99035.81;;;29.41;44.21
13241;BME280;6687;47.790;7.322;2023-09-07T18:17:54;99039.78;;;28.98;45.42
13241;BME280;6687;47.790;7.322;2023-09-07T18:20:21;99048.47;;;28.89;45.24
13241;BME280;6687;47.790;7.322;2023-09-07T18:22:48;99047.16;;;28.94;45.31
13241;BME280;6687;47.790;7.322;2023-09-07T18:25:15;99050.84;;;29.18;44.68
13241;BME280;6687;47.790;7.322;2023-09-07T18:27:42;99059.22;;;28.63;45.68
13241;BME280;6687;47.790;7.322;2023-09-07T18:30:10;99046.22;;;28.83;45.20
13241;BME280;6687;47.790;7.322;2023-09-07T18:32:38;99051.50;;;28.46;46.17
13241;BME280;6687;47.790;7.322;2023-09-07T18:35:05;99051.94;;;28.40;45.91